Hovedside
METAR-TAF:

METAR-TAF

Lufthavner :

Alger, Algerie

Houari Boumedienne lufthavn

breddegrad: 36-43N, lengdegrad: 003-15E, høyde over havet: 25 m

Gjeldene værobservasjon

Denne rapporten ble laget for 25 minutter siden, klokken 19:00 UTC
Vind 1 kt fra Sør-sørøst
Temperatur 10°C
Luftfuktighet 93%
Trykk 1020 hPa
Sikt 10 km eller mer
Få skyer i en høyde av 2000 ft

METAR: DAAG 181900Z 16001KT 9999 FEW020 10/09 Q1020

Tid: 20:25 (19:25 UTC)

Varsel

Denne rapporten ble laget for 2 timer og 25 minutter siden, klokken 17:00 UTC
Varsel gyldig fra 18. klokken 18 UTC til 19. klokken 18 UTC
Vind 2 kt fra skiftende retning
Sikt 10 km eller mer
Få skyer i en høyde av 2000 ft
Sannsynlighet 30% :
Midlertidig
fra 18. klokken 22 UTC til 19. klokken 04 UTC
Sikt: 4000 m
Brutte skyer i en høyde av 1500 ft
dis
Blir
fra 19. klokken 10 UTC til 19. klokken 13 UTC
Vind 10 kt fra Nordvest

TAF: DAAG 181700Z 1818/1918 VRB02KT 9999 FEW020 PROB30 TEMPO 1822/1904 4000 BR BKN015 BECMG 1910/1913 32010KT

Værobservasjoner og værvarsel for over 4000 flyplasser (METAR- og TAF-rapporter).

Tilgjengelige stasjoner er representert av de røde og gule prikkene på kartet.

Hold musepekeren over prikken for å se navnet på stasjonen.

Klikk så for å se værobservasjoner og -varsler.

For å forandre kartet kan du klikke på den grønne knappen med svart kryss for å zoome inn, på den grønne knappen med strek for å zoome ut, eller på de grønne pilene for å se tilstøtende kart.


METAR-TAF: